sensor_id;sensor_type;location;lat;lon;timestamp;P1;durP1;ratioP1;P2;durP2;ratioP2
52186;SDS011;38161;53.020;6.598;2023-07-22T00:01:09;14.68;;;13.25;;
52186;SDS011;38161;53.020;6.598;2023-07-22T00:03:35;15.07;;;13.50;;
52186;SDS011;38161;53.020;6.598;2023-07-22T00:06:05;13.60;;;11.35;;
52186;SDS011;38161;53.020;6.598;2023-07-22T00:08:32;13.52;;;12.15;;
52186;SDS011;38161;53.020;6.598;2023-07-22T00:10:59;13.38;;;12.02;;
52186;SDS011;38161;53.020;6.598;2023-07-22T00:13:25;13.80;;;12.25;;
52186;SDS011;38161;53.020;6.598;2023-07-22T00:15:54;13.40;;;12.10;;
52186;SDS011;38161;53.020;6.598;2023-07-22T00:18:21;12.00;;;10.80;;
52186;SDS011;38161;53.020;6.598;2023-07-22T00:20:47;12.93;;;11.32;;
52186;SDS011;38161;53.020;6.598;2023-07-22T00:23:13;13.20;;;11.90;;
52186;SDS011;38161;53.020;6.598;2023-07-22T00:25:40;17.15;;;10.82;;
52186;SDS011;38161;53.020;6.598;2023-07-22T00:28:07;12.23;;;10.93;;
52186;SDS011;38161;53.020;6.598;2023-07-22T00:30:33;12.82;;;11.50;;
52186;SDS011;38161;53.020;6.598;2023-07-22T00:33:00;12.75;;;10.88;;
52186;SDS011;38161;53.020;6.598;2023-07-22T00:35:26;11.88;;;10.77;;
52186;SDS011;38161;53.020;6.598;2023-07-22T00:37:52;15.82;;;11.55;;
52186;SDS011;38161;53.020;6.598;2023-07-22T00:40:18;16.27;;;11.32;;
52186;SDS011;38161;53.020;6.598;2023-07-22T00:42:45;11.30;;;10.13;;
52186;SDS011;38161;53.020;6.598;2023-07-22T00:45:11;12.68;;;11.25;;
52186;SDS011;38161;53.020;6.598;2023-07-22T00:47:37;13.13;;;12.00;;
52186;SDS011;38161;53.020;6.598;2023-07-22T00:50:05;13.43;;;11.70;;
52186;SDS011;38161;53.020;6.598;2023-07-22T00:52:33;12.18;;;10.27;;
52186;SDS011;38161;53.020;6.598;2023-07-22T00:54:59;13.57;;;11.93;;
52186;SDS011;38161;53.020;6.598;2023-07-22T00:57:27;11.88;;;10.60;;
52186;SDS011;38161;53.020;6.598;2023-07-22T00:59:53;15.60;;;14.07;;
52186;SDS011;38161;53.020;6.598;2023-07-22T01:02:22;12.73;;;11.23;;
52186;SDS011;38161;53.020;6.598;2023-07-22T01:04:49;11.95;;;10.50;;
52186;SDS011;38161;53.020;6.598;2023-07-22T01:07:18;12.80;;;11.57;;
52186;SDS011;38161;53.020;6.598;2023-07-22T01:09:47;12.68;;;11.13;;
52186;SDS011;38161;53.020;6.598;2023-07-22T01:12:13;13.38;;;12.15;;
52186;SDS011;38161;53.020;6.598;2023-07-22T01:14:40;13.95;;;11.50;;
52186;SDS011;38161;53.020;6.598;2023-07-22T01:17:07;14.48;;;11.95;;
52186;SDS011;38161;53.020;6.598;2023-07-22T01:19:35;11.60;;;10.40;;
52186;SDS011;38161;53.020;6.598;2023-07-22T01:24:28;11.50;;;8.77;;
52186;SDS011;38161;53.020;6.598;2023-07-22T01:26:55;11.20;;;9.07;;
52186;SDS011;38161;53.020;6.598;2023-07-22T01:29:24;11.88;;;9.38;;
52186;SDS011;38161;53.020;6.598;2023-07-22T01:31:52;11.95;;;9.77;;
52186;SDS011;38161;53.020;6.598;2023-07-22T01:34:19;11.43;;;10.27;;
52186;SDS011;38161;53.020;6.598;2023-07-22T01:36:46;12.70;;;11.07;;
52186;SDS011;38161;53.020;6.598;2023-07-22T01:39:18;12.10;;;9.57;;
52186;SDS011;38161;53.020;6.598;2023-07-22T01:41:44;11.57;;;10.07;;
52186;SDS011;38161;53.020;6.598;2023-07-22T01:44:11;10.38;;;9.27;;
52186;SDS011;38161;53.020;6.598;2023-07-22T01:46:41;10.38;;;9.35;;
52186;SDS011;38161;53.020;6.598;2023-07-22T01:49:10;11.52;;;9.07;;
52186;SDS011;38161;53.020;6.598;2023-07-22T01:51:37;11.15;;;10.13;;
52186;SDS011;38161;53.020;6.598;2023-07-22T01:54:05;11.40;;;10.25;;
52186;SDS011;38161;53.020;6.598;2023-07-22T01:56:32;11.27;;;10.18;;
52186;SDS011;38161;53.020;6.598;2023-07-22T01:58:58;11.10;;;9.95;;
52186;SDS011;38161;53.020;6.598;2023-07-22T02:01:24;11.02;;;9.95;;
52186;SDS011;38161;53.020;6.598;2023-07-22T02:03:50;10.27;;;8.45;;
52186;SDS011;38161;53.020;6.598;2023-07-22T02:06:16;9.70;;;8.70;;
52186;SDS011;38161;53.020;6.598;2023-07-22T02:11:11;9.80;;;8.43;;
52186;SDS011;38161;53.020;6.598;2023-07-22T02:13:37;12.05;;;8.93;;
52186;SDS011;38161;53.020;6.598;2023-07-22T02:16:03;9.43;;;8.48;;
52186;SDS011;38161;53.020;6.598;2023-07-22T02:18:29;9.90;;;8.93;;
52186;SDS011;38161;53.020;6.598;2023-07-22T02:20:56;9.63;;;8.65;;
52186;SDS011;38161;53.020;6.598;2023-07-22T02:23:23;9.25;;;8.00;;
52186;SDS011;38161;53.020;6.598;2023-07-22T02:25:50;10.75;;;8.60;;
52186;SDS011;38161;53.020;6.598;2023-07-22T02:28:22;9.63;;;8.63;;
52186;SDS011;38161;53.020;6.598;2023-07-22T02:30:50;10.02;;;9.00;;
52186;SDS011;38161;53.020;6.598;2023-07-22T02:33:18;9.70;;;8.73;;
52186;SDS011;38161;53.020;6.598;2023-07-22T02:35:44;10.88;;;9.70;;
52186;SDS011;38161;53.020;6.598;2023-07-22T02:38:10;11.07;;;9.68;;
52186;SDS011;38161;53.020;6.598;2023-07-22T02:40:37;10.55;;;9.00;;
52186;SDS011;38161;53.020;6.598;2023-07-22T02:43:03;10.07;;;9.00;;
52186;SDS011;38161;53.020;6.598;2023-07-22T02:45:30;8.73;;;7.60;;
52186;SDS011;38161;53.020;6.598;2023-07-22T02:47:56;9.05;;;7.97;;
52186;SDS011;38161;53.020;6.598;2023-07-22T02:50:22;9.73;;;8.70;;
52186;SDS011;38161;53.020;6.598;2023-07-22T02:52:50;9.60;;;8.00;;
52186;SDS011;38161;53.020;6.598;2023-07-22T02:55:17;8.30;;;7.50;;
52186;SDS011;38161;53.020;6.598;2023-07-22T02:57:47;10.00;;;8.73;;
52186;SDS011;38161;53.020;6.598;2023-07-22T03:00:14;8.80;;;7.72;;
52186;SDS011;38161;53.020;6.598;2023-07-22T03:02:54;9.00;;;8.02;;
52186;SDS011;38161;53.020;6.598;2023-07-22T03:05:26;10.93;;;8.15;;
52186;SDS011;38161;53.020;6.598;2023-07-22T03:07:53;9.68;;;8.68;;
52186;SDS011;38161;53.020;6.598;2023-07-22T03:10:19;9.63;;;8.63;;
52186;SDS011;38161;53.020;6.598;2023-07-22T03:12:45;7.95;;;7.18;;
52186;SDS011;38161;53.020;6.598;2023-07-22T03:15:11;7.97;;;7.10;;
52186;SDS011;38161;53.020;6.598;2023-07-22T03:17:38;10.63;;;8.20;;
52186;SDS011;38161;53.020;6.598;2023-07-22T03:20:08;8.18;;;7.25;;
52186;SDS011;38161;53.020;6.598;2023-07-22T03:22:43;7.80;;;7.03;;
52186;SDS011;38161;53.020;6.598;2023-07-22T03:25:09;9.02;;;8.05;;
52186;SDS011;38161;53.020;6.598;2023-07-22T03:27:36;8.45;;;7.32;;
52186;SDS011;38161;53.020;6.598;2023-07-22T03:30:06;8.55;;;7.68;;
52186;SDS011;38161;53.020;6.598;2023-07-22T03:32:33;8.63;;;7.60;;
52186;SDS011;38161;53.020;6.598;2023-07-22T03:34:59;9.25;;;7.65;;
52186;SDS011;38161;53.020;6.598;2023-07-22T03:37:27;9.10;;;7.72;;
52186;SDS011;38161;53.020;6.598;2023-07-22T03:39:54;8.80;;;7.78;;
52186;SDS011;38161;53.020;6.598;2023-07-22T03:42:19;9.07;;;8.05;;
52186;SDS011;38161;53.020;6.598;2023-07-22T03:44:45;10.30;;;8.48;;
52186;SDS011;38161;53.020;6.598;2023-07-22T03:47:11;11.63;;;9.15;;
52186;SDS011;38161;53.020;6.598;2023-07-22T03:49:40;10.65;;;9.07;;
52186;SDS011;38161;53.020;6.598;2023-07-22T03:52:09;10.70;;;8.77;;
52186;SDS011;38161;53.020;6.598;2023-07-22T03:54:39;9.93;;;8.90;;
52186;SDS011;38161;53.020;6.598;2023-07-22T03:57:05;13.80;;;10.07;;
52186;SDS011;38161;53.020;6.598;2023-07-22T03:59:31;11.20;;;9.38;;
52186;SDS011;38161;53.020;6.598;2023-07-22T04:01:57;11.45;;;9.10;;
52186;SDS011;38161;53.020;6.598;2023-07-22T04:04:23;11.02;;;9.88;;
52186;SDS011;38161;53.020;6.598;2023-07-22T04:06:48;12.93;;;10.25;;
52186;SDS011;38161;53.020;6.598;2023-07-22T04:09:18;11.85;;;9.48;;
52186;SDS011;38161;53.020;6.598;2023-07-22T04:11:46;13.30;;;9.95;;
52186;SDS011;38161;53.020;6.598;2023-07-22T04:14:12;10.40;;;9.30;;
52186;SDS011;38161;53.020;6.598;2023-07-22T04:16:38;13.55;;;11.02;;
52186;SDS011;38161;53.020;6.598;2023-07-22T04:19:04;14.30;;;10.52;;
52186;SDS011;38161;53.020;6.598;2023-07-22T04:21:31;13.57;;;10.18;;
52186;SDS011;38161;53.020;6.598;2023-07-22T04:23:57;11.18;;;9.90;;
52186;SDS011;38161;53.020;6.598;2023-07-22T04:26:23;12.10;;;9.73;;
52186;SDS011;38161;53.020;6.598;2023-07-22T04:28:48;16.33;;;12.03;;
52186;SDS011;38161;53.020;6.598;2023-07-22T04:31:14;15.70;;;11.15;;
52186;SDS011;38161;53.020;6.598;2023-07-22T04:33:41;11.07;;;9.82;;
52186;SDS011;38161;53.020;6.598;2023-07-22T04:36:07;16.20;;;10.55;;
52186;SDS011;38161;53.020;6.598;2023-07-22T04:38:32;16.33;;;11.60;;
52186;SDS011;38161;53.020;6.598;2023-07-22T04:40:58;13.15;;;11.57;;
52186;SDS011;38161;53.020;6.598;2023-07-22T04:43:27;13.10;;;10.98;;
52186;SDS011;38161;53.020;6.598;2023-07-22T04:45:53;15.43;;;10.07;;
52186;SDS011;38161;53.020;6.598;2023-07-22T04:48:19;14.27;;;11.23;;
52186;SDS011;38161;53.020;6.598;2023-07-22T04:50:47;14.88;;;10.48;;
52186;SDS011;38161;53.020;6.598;2023-07-22T04:53:13;15.23;;;11.77;;
52186;SDS011;38161;53.020;6.598;2023-07-22T04:55:40;14.02;;;11.95;;
52186;SDS011;38161;53.020;6.598;2023-07-22T04:58:06;16.40;;;11.18;;
52186;SDS011;38161;53.020;6.598;2023-07-22T05:00:33;15.23;;;11.85;;
52186;SDS011;38161;53.020;6.598;2023-07-22T05:03:00;18.23;;;12.45;;
52186;SDS011;38161;53.020;6.598;2023-07-22T05:05:26;15.77;;;12.07;;
52186;SDS011;38161;53.020;6.598;2023-07-22T05:07:51;14.45;;;11.65;;
52186;SDS011;38161;53.020;6.598;2023-07-22T05:10:17;15.75;;;12.30;;
52186;SDS011;38161;53.020;6.598;2023-07-22T05:15:11;13.27;;;10.10;;
52186;SDS011;38161;53.020;6.598;2023-07-22T05:17:37;15.20;;;12.45;;
52186;SDS011;38161;53.020;6.598;2023-07-22T05:20:04;14.55;;;11.13;;
52186;SDS011;38161;53.020;6.598;2023-07-22T05:22:40;16.40;;;12.33;;
52186;SDS011;38161;53.020;6.598;2023-07-22T05:25:07;18.17;;;12.70;;
52186;SDS011;38161;53.020;6.598;2023-07-22T05:29:59;15.13;;;11.73;;
52186;SDS011;38161;53.020;6.598;2023-07-22T05:32:25;17.02;;;11.90;;
52186;SDS011;38161;53.020;6.598;2023-07-22T05:34:53;15.38;;;13.07;;
52186;SDS011;38161;53.020;6.598;2023-07-22T05:37:19;16.40;;;13.85;;
52186;SDS011;38161;53.020;6.598;2023-07-22T05:39:44;15.80;;;13.35;;
52186;SDS011;38161;53.020;6.598;2023-07-22T05:42:10;18.90;;;13.68;;
52186;SDS011;38161;53.020;6.598;2023-07-22T05:44:36;17.05;;;13.50;;
52186;SDS011;38161;53.020;6.598;2023-07-22T05:47:02;16.52;;;13.98;;
52186;SDS011;38161;53.020;6.598;2023-07-22T05:49:28;16.17;;;12.55;;
52186;SDS011;38161;53.020;6.598;2023-07-22T05:51:54;16.50;;;13.45;;
52186;SDS011;38161;53.020;6.598;2023-07-22T05:54:20;15.85;;;13.35;;
52186;SDS011;38161;53.020;6.598;2023-07-22T05:56:46;17.40;;;14.38;;
52186;SDS011;38161;53.020;6.598;2023-07-22T05:59:12;17.17;;;13.70;;
52186;SDS011;38161;53.020;6.598;2023-07-22T06:01:38;17.10;;;14.20;;
52186;SDS011;38161;53.020;6.598;2023-07-22T06:04:04;18.90;;;14.32;;
52186;SDS011;38161;53.020;6.598;2023-07-22T06:06:30;19.40;;;15.10;;
52186;SDS011;38161;53.020;6.598;2023-07-22T06:08:56;17.45;;;14.18;;
52186;SDS011;38161;53.020;6.598;2023-07-22T06:11:22;19.92;;;14.90;;
52186;SDS011;38161;53.020;6.598;2023-07-22T06:13:48;19.05;;;15.63;;
52186;SDS011;38161;53.020;6.598;2023-07-22T06:16:14;18.92;;;14.35;;
52186;SDS011;38161;53.020;6.598;2023-07-22T06:18:40;18.83;;;14.77;;
52186;SDS011;38161;53.020;6.598;2023-07-22T06:21:05;17.77;;;14.38;;
52186;SDS011;38161;53.020;6.598;2023-07-22T06:23:31;20.88;;;14.57;;
52186;SDS011;38161;53.020;6.598;2023-07-22T06:25:57;17.80;;;14.98;;
52186;SDS011;38161;53.020;6.598;2023-07-22T06:28:23;19.65;;;16.08;;
52186;SDS011;38161;53.020;6.598;2023-07-22T06:30:49;19.20;;;16.30;;
52186;SDS011;38161;53.020;6.598;2023-07-22T06:33:14;16.90;;;14.73;;
52186;SDS011;38161;53.020;6.598;2023-07-22T06:35:41;17.08;;;14.30;;
52186;SDS011;38161;53.020;6.598;2023-07-22T06:38:07;17.85;;;16.05;;
52186;SDS011;38161;53.020;6.598;2023-07-22T06:40:33;16.15;;;14.48;;
52186;SDS011;38161;53.020;6.598;2023-07-22T06:42:59;15.95;;;14.25;;
52186;SDS011;38161;53.020;6.598;2023-07-22T06:45:25;19.27;;;15.70;;
52186;SDS011;38161;53.020;6.598;2023-07-22T06:47:50;18.73;;;16.73;;
52186;SDS011;38161;53.020;6.598;2023-07-22T06:50:16;18.50;;;16.52;;
52186;SDS011;38161;53.020;6.598;2023-07-22T06:52:42;16.50;;;14.38;;
52186;SDS011;38161;53.020;6.598;2023-07-22T06:55:08;16.85;;;15.15;;
52186;SDS011;38161;53.020;6.598;2023-07-22T06:57:34;16.52;;;14.88;;
52186;SDS011;38161;53.020;6.598;2023-07-22T06:59:59;18.30;;;14.85;;
52186;SDS011;38161;53.020;6.598;2023-07-22T07:02:26;20.35;;;16.77;;
52186;SDS011;38161;53.020;6.598;2023-07-22T07:04:52;19.23;;;17.40;;
52186;SDS011;38161;53.020;6.598;2023-07-22T07:07:17;19.35;;;17.58;;
52186;SDS011;38161;53.020;6.598;2023-07-22T07:09:44;21.45;;;18.92;;
52186;SDS011;38161;53.020;6.598;2023-07-22T07:12:10;19.90;;;17.90;;
52186;SDS011;38161;53.020;6.598;2023-07-22T07:14:36;19.65;;;17.55;;
52186;SDS011;38161;53.020;6.598;2023-07-22T07:17:02;21.50;;;19.35;;
52186;SDS011;38161;53.020;6.598;2023-07-22T07:19:28;19.63;;;17.63;;
52186;SDS011;38161;53.020;6.598;2023-07-22T07:21:54;19.17;;;17.15;;
52186;SDS011;38161;53.020;6.598;2023-07-22T07:24:20;21.88;;;18.38;;
52186;SDS011;38161;53.020;6.598;2023-07-22T07:26:46;20.48;;;18.42;;
52186;SDS011;38161;53.020;6.598;2023-07-22T07:29:12;20.65;;;18.63;;
52186;SDS011;38161;53.020;6.598;2023-07-22T07:31:38;19.95;;;18.00;;
52186;SDS011;38161;53.020;6.598;2023-07-22T07:34:04;19.52;;;17.65;;
52186;SDS011;38161;53.020;6.598;2023-07-22T07:36:31;19.63;;;17.58;;
52186;SDS011;38161;53.020;6.598;2023-07-22T07:39:00;19.48;;;17.52;;
52186;SDS011;38161;53.020;6.598;2023-07-22T07:41:25;17.23;;;15.60;;
52186;SDS011;38161;53.020;6.598;2023-07-22T07:43:51;19.20;;;17.45;;
52186;SDS011;38161;53.020;6.598;2023-07-22T07:46:22;18.13;;;16.38;;
52186;SDS011;38161;53.020;6.598;2023-07-22T07:48:49;18.58;;;16.73;;
52186;SDS011;38161;53.020;6.598;2023-07-22T07:51:20;18.55;;;16.73;;
52186;SDS011;38161;53.020;6.598;2023-07-22T07:53:47;19.80;;;17.90;;
52186;SDS011;38161;53.020;6.598;2023-07-22T07:56:14;17.73;;;16.13;;
52186;SDS011;38161;53.020;6.598;2023-07-22T07:58:41;20.08;;;18.30;;
52186;SDS011;38161;53.020;6.598;2023-07-22T08:01:07;17.85;;;16.38;;
52186;SDS011;38161;53.020;6.598;2023-07-22T08:03:34;16.83;;;15.35;;
52186;SDS011;38161;53.020;6.598;2023-07-22T08:06:01;20.52;;;18.63;;
52186;SDS011;38161;53.020;6.598;2023-07-22T08:08:27;19.35;;;17.65;;
52186;SDS011;38161;53.020;6.598;2023-07-22T08:11:00;19.42;;;17.77;;
52186;SDS011;38161;53.020;6.598;2023-07-22T08:13:26;21.40;;;19.63;;
52186;SDS011;38161;53.020;6.598;2023-07-22T08:15:54;19.67;;;18.00;;
52186;SDS011;38161;53.020;6.598;2023-07-22T08:18:20;17.10;;;15.57;;
52186;SDS011;38161;53.020;6.598;2023-07-22T08:20:46;17.92;;;16.45;;
52186;SDS011;38161;53.020;6.598;2023-07-22T08:23:13;19.13;;;17.42;;
52186;SDS011;38161;53.020;6.598;2023-07-22T08:28:04;18.02;;;16.40;;
52186;SDS011;38161;53.020;6.598;2023-07-22T08:30:30;21.67;;;19.80;;
52186;SDS011;38161;53.020;6.598;2023-07-22T08:32:56;22.80;;;20.70;;
52186;SDS011;38161;53.020;6.598;2023-07-22T08:35:22;23.45;;;21.50;;
52186;SDS011;38161;53.020;6.598;2023-07-22T08:37:48;24.55;;;22.25;;
52186;SDS011;38161;53.020;6.598;2023-07-22T08:40:14;19.90;;;18.17;;
52186;SDS011;38161;53.020;6.598;2023-07-22T08:42:40;25.52;;;23.17;;
52186;SDS011;38161;53.020;6.598;2023-07-22T08:45:08;20.88;;;18.90;;
52186;SDS011;38161;53.020;6.598;2023-07-22T08:47:38;24.08;;;21.95;;
52186;SDS011;38161;53.020;6.598;2023-07-22T08:50:09;23.45;;;21.35;;
52186;SDS011;38161;53.020;6.598;2023-07-22T08:52:36;26.83;;;24.58;;
52186;SDS011;38161;53.020;6.598;2023-07-22T08:55:03;22.65;;;20.65;;
52186;SDS011;38161;53.020;6.598;2023-07-22T08:57:29;27.30;;;24.77;;
52186;SDS011;38161;53.020;6.598;2023-07-22T09:02:25;23.02;;;20.90;;
52186;SDS011;38161;53.020;6.598;2023-07-22T09:04:51;21.33;;;19.25;;
52186;SDS011;38161;53.020;6.598;2023-07-22T09:09:46;20.58;;;18.45;;
52186;SDS011;38161;53.020;6.598;2023-07-22T09:12:13;23.38;;;21.13;;
52186;SDS011;38161;53.020;6.598;2023-07-22T09:14:40;21.42;;;19.35;;
52186;SDS011;38161;53.020;6.598;2023-07-22T09:17:07;24.88;;;22.48;;
52186;SDS011;38161;53.020;6.598;2023-07-22T09:19:33;25.27;;;22.88;;
52186;SDS011;38161;53.020;6.598;2023-07-22T09:21:58;23.33;;;21.13;;
52186;SDS011;38161;53.020;6.598;2023-07-22T09:24:25;27.95;;;25.50;;
52186;SDS011;38161;53.020;6.598;2023-07-22T09:26:54;23.55;;;21.33;;
52186;SDS011;38161;53.020;6.598;2023-07-22T09:29:36;22.65;;;20.45;;
52186;SDS011;38161;53.020;6.598;2023-07-22T09:32:05;24.77;;;22.48;;
52186;SDS011;38161;53.020;6.598;2023-07-22T09:34:31;23.98;;;21.83;;
52186;SDS011;38161;53.020;6.598;2023-07-22T09:36:58;22.60;;;20.48;;
52186;SDS011;38161;53.020;6.598;2023-07-22T09:39:29;23.80;;;21.77;;
52186;SDS011;38161;53.020;6.598;2023-07-22T09:41:55;22.08;;;20.08;;
52186;SDS011;38161;53.020;6.598;2023-07-22T09:46:48;22.25;;;20.33;;
52186;SDS011;38161;53.020;6.598;2023-07-22T09:49:15;20.77;;;18.88;;
52186;SDS011;38161;53.020;6.598;2023-07-22T09:51:43;22.98;;;21.08;;
52186;SDS011;38161;53.020;6.598;2023-07-22T09:54:09;20.92;;;19.23;;
52186;SDS011;38161;53.020;6.598;2023-07-22T09:59:14;18.63;;;17.13;;
52186;SDS011;38161;53.020;6.598;2023-07-22T10:01:43;17.23;;;15.75;;
52186;SDS011;38161;53.020;6.598;2023-07-22T10:04:12;15.38;;;14.07;;
52186;SDS011;38161;53.020;6.598;2023-07-22T10:06:41;17.90;;;16.58;;
52186;SDS011;38161;53.020;6.598;2023-07-22T10:09:08;18.30;;;16.88;;
52186;SDS011;38161;53.020;6.598;2023-07-22T10:11:37;17.20;;;15.82;;
52186;SDS011;38161;53.020;6.598;2023-07-22T10:14:05;17.63;;;16.38;;
52186;SDS011;38161;53.020;6.598;2023-07-22T10:16:31;18.80;;;17.45;;
52186;SDS011;38161;53.020;6.598;2023-07-22T10:18:58;16.83;;;15.63;;
52186;SDS011;38161;53.020;6.598;2023-07-22T10:21:25;16.95;;;15.65;;
52186;SDS011;38161;53.020;6.598;2023-07-22T10:23:53;20.58;;;18.75;;
52186;SDS011;38161;53.020;6.598;2023-07-22T10:26:20;18.58;;;17.13;;
52186;SDS011;38161;53.020;6.598;2023-07-22T10:28:46;19.15;;;17.58;;
52186;SDS011;38161;53.020;6.598;2023-07-22T10:31:13;19.83;;;18.23;;
52186;SDS011;38161;53.020;6.598;2023-07-22T10:33:44;19.88;;;18.25;;
52186;SDS011;38161;53.020;6.598;2023-07-22T10:36:15;19.15;;;17.20;;
52186;SDS011;38161;53.020;6.598;2023-07-22T10:38:55;20.67;;;18.92;;
52186;SDS011;38161;53.020;6.598;2023-07-22T10:41:22;19.50;;;18.02;;
52186;SDS011;38161;53.020;6.598;2023-07-22T10:43:55;26.17;;;23.88;;
52186;SDS011;38161;53.020;6.598;2023-07-22T10:46:32;18.38;;;16.70;;
52186;SDS011;38161;53.020;6.598;2023-07-22T10:49:12;19.80;;;18.35;;
52186;SDS011;38161;53.020;6.598;2023-07-22T10:51:41;18.33;;;16.83;;
52186;SDS011;38161;53.020;6.598;2023-07-22T10:54:15;21.50;;;19.70;;
52186;SDS011;38161;53.020;6.598;2023-07-22T10:56:57;18.95;;;17.35;;
52186;SDS011;38161;53.020;6.598;2023-07-22T10:59:29;27.02;;;24.98;;
52186;SDS011;38161;53.020;6.598;2023-07-22T11:01:59;16.80;;;15.40;;
52186;SDS011;38161;53.020;6.598;2023-07-22T11:04:26;21.17;;;19.50;;
52186;SDS011;38161;53.020;6.598;2023-07-22T11:07:04;17.80;;;16.38;;
52186;SDS011;38161;53.020;6.598;2023-07-22T11:12:00;17.75;;;16.15;;
52186;SDS011;38161;53.020;6.598;2023-07-22T11:14:26;18.23;;;16.67;;
52186;SDS011;38161;53.020;6.598;2023-07-22T11:16:55;20.10;;;18.40;;
52186;SDS011;38161;53.020;6.598;2023-07-22T11:19:23;16.52;;;15.07;;
52186;SDS011;38161;53.020;6.598;2023-07-22T11:21:50;20.02;;;18.52;;
52186;SDS011;38161;53.020;6.598;2023-07-22T11:24:17;19.42;;;17.88;;
52186;SDS011;38161;53.020;6.598;2023-07-22T11:26:45;21.02;;;19.15;;
52186;SDS011;38161;53.020;6.598;2023-07-22T11:29:14;20.80;;;19.10;;
52186;SDS011;38161;53.020;6.598;2023-07-22T11:31:42;19.25;;;17.52;;
52186;SDS011;38161;53.020;6.598;2023-07-22T11:34:14;21.52;;;19.73;;
52186;SDS011;38161;53.020;6.598;2023-07-22T11:36:45;21.58;;;19.73;;
52186;SDS011;38161;53.020;6.598;2023-07-22T11:39:12;18.90;;;17.33;;
52186;SDS011;38161;53.020;6.598;2023-07-22T11:41:39;22.02;;;20.33;;
52186;SDS011;38161;53.020;6.598;2023-07-22T11:44:09;19.05;;;17.55;;
52186;SDS011;38161;53.020;6.598;2023-07-22T11:46:58;18.23;;;16.73;;
52186;SDS011;38161;53.020;6.598;2023-07-22T11:49:31;16.95;;;15.48;;
52186;SDS011;38161;53.020;6.598;2023-07-22T11:51:59;20.75;;;19.15;;
52186;SDS011;38161;53.020;6.598;2023-07-22T11:54:27;21.17;;;19.58;;
52186;SDS011;38161;53.020;6.598;2023-07-22T11:56:53;21.60;;;19.83;;
52186;SDS011;38161;53.020;6.598;2023-07-22T11:59:32;20.17;;;18.38;;
52186;SDS011;38161;53.020;6.598;2023-07-22T12:02:02;20.33;;;18.67;;
52186;SDS011;38161;53.020;6.598;2023-07-22T12:04:31;20.30;;;18.60;;
52186;SDS011;38161;53.020;6.598;2023-07-22T12:06:58;19.40;;;17.73;;
52186;SDS011;38161;53.020;6.598;2023-07-22T12:09:25;20.50;;;18.60;;
52186;SDS011;38161;53.020;6.598;2023-07-22T12:11:55;18.30;;;16.63;;
52186;SDS011;38161;53.020;6.598;2023-07-22T12:14:23;19.20;;;17.40;;
52186;SDS011;38161;53.020;6.598;2023-07-22T12:16:52;17.65;;;16.15;;
52186;SDS011;38161;53.020;6.598;2023-07-22T12:19:22;22.65;;;20.80;;
52186;SDS011;38161;53.020;6.598;2023-07-22T12:21:47;19.35;;;17.65;;
52186;SDS011;38161;53.020;6.598;2023-07-22T12:26:40;17.83;;;16.33;;
52186;SDS011;38161;53.020;6.598;2023-07-22T12:29:07;19.00;;;17.40;;
52186;SDS011;38161;53.020;6.598;2023-07-22T12:31:33;22.50;;;20.70;;
52186;SDS011;38161;53.020;6.598;2023-07-22T12:34:01;19.27;;;17.50;;
52186;SDS011;38161;53.020;6.598;2023-07-22T12:36:27;15.88;;;14.40;;
52186;SDS011;38161;53.020;6.598;2023-07-22T12:38:53;14.38;;;13.07;;
52186;SDS011;38161;53.020;6.598;2023-07-22T12:41:19;15.82;;;14.32;;
52186;SDS011;38161;53.020;6.598;2023-07-22T12:43:44;14.85;;;13.55;;
52186;SDS011;38161;53.020;6.598;2023-07-22T12:46:10;16.05;;;14.60;;
52186;SDS011;38161;53.020;6.598;2023-07-22T12:48:36;14.82;;;13.40;;
52186;SDS011;38161;53.020;6.598;2023-07-22T12:51:02;14.90;;;13.57;;
52186;SDS011;38161;53.020;6.598;2023-07-22T12:53:28;15.52;;;14.02;;
52186;SDS011;38161;53.020;6.598;2023-07-22T12:55:54;15.63;;;14.18;;
52186;SDS011;38161;53.020;6.598;2023-07-22T12:58:20;15.60;;;14.00;;
52186;SDS011;38161;53.020;6.598;2023-07-22T13:00:45;16.88;;;15.27;;
52186;SDS011;38161;53.020;6.598;2023-07-22T13:03:11;15.70;;;14.32;;
52186;SDS011;38161;53.020;6.598;2023-07-22T13:05:37;15.25;;;13.40;;
52186;SDS011;38161;53.020;6.598;2023-07-22T13:08:03;16.52;;;15.02;;
52186;SDS011;38161;53.020;6.598;2023-07-22T13:10:29;15.65;;;14.13;;
52186;SDS011;38161;53.020;6.598;2023-07-22T13:12:56;17.83;;;16.17;;
52186;SDS011;38161;53.020;6.598;2023-07-22T13:15:22;16.42;;;14.73;;
52186;SDS011;38161;53.020;6.598;2023-07-22T13:17:48;17.17;;;15.50;;
52186;SDS011;38161;53.020;6.598;2023-07-22T13:20:14;15.27;;;13.77;;
52186;SDS011;38161;53.020;6.598;2023-07-22T13:22:40;16.35;;;14.85;;
52186;SDS011;38161;53.020;6.598;2023-07-22T13:25:06;17.02;;;15.52;;
52186;SDS011;38161;53.020;6.598;2023-07-22T13:27:32;16.95;;;15.43;;
52186;SDS011;38161;53.020;6.598;2023-07-22T13:29:58;16.45;;;15.05;;
52186;SDS011;38161;53.020;6.598;2023-07-22T13:32:25;17.05;;;15.55;;
52186;SDS011;38161;53.020;6.598;2023-07-22T13:34:51;16.17;;;14.82;;
52186;SDS011;38161;53.020;6.598;2023-07-22T13:37:17;16.85;;;15.18;;
52186;SDS011;38161;53.020;6.598;2023-07-22T13:39:43;17.73;;;16.02;;
52186;SDS011;38161;53.020;6.598;2023-07-22T13:42:10;16.75;;;15.35;;
52186;SDS011;38161;53.020;6.598;2023-07-22T13:44:36;16.67;;;15.07;;
52186;SDS011;38161;53.020;6.598;2023-07-22T13:47:01;16.40;;;15.10;;
52186;SDS011;38161;53.020;6.598;2023-07-22T13:49:27;15.77;;;14.50;;
52186;SDS011;38161;53.020;6.598;2023-07-22T13:51:53;14.63;;;13.45;;
52186;SDS011;38161;53.020;6.598;2023-07-22T13:54:19;13.93;;;12.85;;
52186;SDS011;38161;53.020;6.598;2023-07-22T13:56:45;16.40;;;15.02;;
52186;SDS011;38161;53.020;6.598;2023-07-22T13:59:13;17.00;;;15.68;;
52186;SDS011;38161;53.020;6.598;2023-07-22T14:01:39;21.35;;;15.38;;
52186;SDS011;38161;53.020;6.598;2023-07-22T14:04:05;18.33;;;16.75;;
52186;SDS011;38161;53.020;6.598;2023-07-22T14:06:31;19.75;;;18.25;;
52186;SDS011;38161;53.020;6.598;2023-07-22T14:08:57;17.08;;;15.75;;
52186;SDS011;38161;53.020;6.598;2023-07-22T14:11:23;17.98;;;16.50;;
52186;SDS011;38161;53.020;6.598;2023-07-22T14:13:50;17.48;;;16.17;;
52186;SDS011;38161;53.020;6.598;2023-07-22T14:16:19;16.85;;;15.65;;
52186;SDS011;38161;53.020;6.598;2023-07-22T14:18:45;18.10;;;16.70;;
52186;SDS011;38161;53.020;6.598;2023-07-22T14:21:11;16.48;;;15.15;;
52186;SDS011;38161;53.020;6.598;2023-07-22T14:23:37;16.42;;;15.13;;
52186;SDS011;38161;53.020;6.598;2023-07-22T14:26:06;16.60;;;15.10;;
52186;SDS011;38161;53.020;6.598;2023-07-22T14:28:32;16.85;;;15.20;;
52186;SDS011;38161;53.020;6.598;2023-07-22T14:30:58;16.92;;;15.52;;
52186;SDS011;38161;53.020;6.598;2023-07-22T14:33:24;18.40;;;17.08;;
52186;SDS011;38161;53.020;6.598;2023-07-22T14:35:50;17.95;;;16.42;;
52186;SDS011;38161;53.020;6.598;2023-07-22T14:38:20;16.55;;;15.15;;
52186;SDS011;38161;53.020;6.598;2023-07-22T14:40:47;18.08;;;16.52;;
52186;SDS011;38161;53.020;6.598;2023-07-22T14:43:12;18.48;;;16.95;;
52186;SDS011;38161;53.020;6.598;2023-07-22T14:45:41;15.80;;;14.43;;
52186;SDS011;38161;53.020;6.598;2023-07-22T14:48:07;17.75;;;16.38;;
52186;SDS011;38161;53.020;6.598;2023-07-22T14:50:33;16.27;;;15.07;;
52186;SDS011;38161;53.020;6.598;2023-07-22T14:52:58;17.50;;;16.17;;